createdAt,value
2023-05-12T00:00:57.272Z,2.40
2023-05-12T00:06:00.487Z,2.85
2023-05-12T00:11:01.924Z,2.67
2023-05-12T00:16:03.791Z,2.50
2023-05-12T00:21:05.617Z,2.40
2023-05-12T00:26:07.390Z,2.08
2023-05-12T00:31:08.983Z,2.20
2023-05-12T00:36:10.576Z,2.53
2023-05-12T00:41:12.012Z,2.58
2023-05-12T00:46:13.947Z,2.10
2023-05-12T00:51:16.614Z,2.45
2023-05-12T00:56:21.959Z,2.50
2023-05-12T01:01:24.420Z,2.03
2023-05-12T01:06:25.892Z,2.50
2023-05-12T01:11:27.487Z,2.10
2023-05-12T01:16:31.554Z,2.10
2023-05-12T01:21:33.120Z,1.85
2023-05-12T01:26:34.573Z,2.25
2023-05-12T01:31:36.190Z,2.70
2023-05-12T01:36:37.700Z,3.20
2023-05-12T01:41:39.157Z,2.75
2023-05-12T01:46:40.864Z,3.15
2023-05-12T01:51:42.326Z,3.10
2023-05-12T01:56:43.753Z,3.55
2023-05-12T02:01:45.268Z,2.80
2023-05-12T02:06:46.831Z,3.08
2023-05-12T02:11:48.727Z,3.17
2023-05-12T02:16:52.769Z,3.70
2023-05-12T02:21:54.260Z,3.75
2023-05-12T02:26:55.684Z,4.05
2023-05-12T02:31:59.829Z,3.78
2023-05-12T02:37:01.377Z,4.03
2023-05-12T02:42:02.806Z,3.40
2023-05-12T02:47:04.420Z,4.00
2023-05-12T02:52:06.476Z,4.00
2023-05-12T02:57:07.920Z,4.95
2023-05-12T03:02:09.371Z,4.80
2023-05-12T03:07:10.943Z,6.00
2023-05-12T03:12:12.336Z,6.93
2023-05-12T03:17:13.964Z,7.50
2023-05-12T03:22:15.509Z,7.72
2023-05-12T03:27:17.078Z,8.90
2023-05-12T03:32:18.494Z,8.93
2023-05-12T03:37:19.908Z,10.50
2023-05-12T03:42:21.579Z,10.48
2023-05-12T03:47:23.285Z,11.27
2023-05-12T03:52:25.043Z,11.00
2023-05-12T03:57:26.589Z,11.02
2023-05-12T04:02:28.243Z,11.38
2023-05-12T04:07:29.822Z,11.95
2023-05-12T04:12:31.242Z,11.27
2023-05-12T04:17:33.270Z,11.45
2023-05-12T04:22:34.764Z,12.13
2023-05-12T04:27:38.459Z,11.48
2023-05-12T04:32:39.983Z,11.55
2023-05-12T04:37:41.624Z,10.57
2023-05-12T04:42:43.090Z,10.77
2023-05-12T04:47:44.718Z,11.07
2023-05-12T04:52:46.237Z,10.85
2023-05-12T04:57:47.680Z,10.10
2023-05-12T05:02:50.776Z,10.07
2023-05-12T05:07:52.230Z,11.32
2023-05-12T05:12:53.789Z,10.57
2023-05-12T05:17:55.422Z,11.80
2023-05-12T05:22:56.886Z,10.90
2023-05-12T05:27:58.458Z,11.07
2023-05-12T05:32:59.914Z,10.50
2023-05-12T05:38:01.617Z,11.00
2023-05-12T05:43:03.042Z,11.90
2023-05-12T05:48:06.898Z,11.73
2023-05-12T05:53:08.480Z,11.45
2023-05-12T05:58:10.096Z,11.00
2023-05-12T06:03:11.772Z,10.15
2023-05-12T06:08:13.623Z,10.85
2023-05-12T06:13:15.404Z,12.48
2023-05-12T06:18:16.879Z,12.05
2023-05-12T06:23:18.324Z,11.35
2023-05-12T06:28:21.505Z,12.25
2023-05-12T06:33:22.957Z,12.10
2023-05-12T06:38:24.450Z,11.90
2023-05-12T06:43:26.803Z,12.75
2023-05-12T06:48:28.213Z,13.05
2023-05-12T06:53:30.029Z,12.80
2023-05-12T06:58:31.493Z,12.73
2023-05-12T07:03:33.668Z,12.70
2023-05-12T07:08:35.258Z,13.02
2023-05-12T07:13:38.126Z,14.18
2023-05-12T07:18:39.862Z,13.32
2023-05-12T07:23:41.329Z,11.85
2023-05-12T07:28:42.744Z,12.65
2023-05-12T07:33:44.190Z,13.05
2023-05-12T07:38:45.772Z,13.35
2023-05-12T07:43:47.245Z,13.63
2023-05-12T07:48:49.227Z,13.05
2023-05-12T07:53:50.703Z,12.63
2023-05-12T07:58:52.265Z,12.55
2023-05-12T08:03:53.775Z,12.75
2023-05-12T08:08:58.523Z,13.43
2023-05-12T08:14:00.342Z,12.38
2023-05-12T08:19:01.857Z,12.85
2023-05-12T08:24:03.758Z,13.10
2023-05-12T08:29:07.920Z,12.32
2023-05-12T08:34:11.064Z,12.77
2023-05-12T08:39:12.854Z,13.35
2023-05-12T08:44:15.894Z,13.00
2023-05-12T08:49:17.917Z,13.60
2023-05-12T08:54:20.951Z,14.00
2023-05-12T08:59:23.357Z,12.23
2023-05-12T09:04:24.922Z,13.40
2023-05-12T09:09:27.277Z,11.68
2023-05-12T09:14:30.521Z,12.65
2023-05-12T09:19:32.650Z,12.10
2023-05-12T09:24:35.010Z,13.45
2023-05-12T09:29:45.133Z,13.73
2023-05-12T09:34:53.171Z,13.93
2023-05-12T09:40:01.676Z,13.35
2023-05-12T09:45:07.254Z,12.07
2023-05-12T09:50:08.794Z,11.70
2023-05-12T09:55:11.159Z,13.45
2023-05-12T10:00:31.316Z,12.90
2023-05-12T10:05:36.866Z,12.20
2023-05-12T10:10:38.351Z,11.45
2023-05-12T10:15:40.828Z,10.93
2023-05-12T10:20:45.188Z,12.00
2023-05-12T10:25:47.827Z,11.73
2023-05-12T10:30:50.382Z,11.32
2023-05-12T10:35:52.445Z,11.07
2023-05-12T10:41:01.572Z,11.98
2023-05-12T10:46:06.582Z,10.23
2023-05-12T10:51:09.049Z,11.63
2023-05-12T10:56:10.770Z,10.70
2023-05-12T11:01:13.242Z,9.98
2023-05-12T11:06:19.250Z,10.88
2023-05-12T11:11:22.372Z,11.55
2023-05-12T11:16:25.325Z,11.30
2023-05-12T11:21:26.853Z,11.07
2023-05-12T11:26:28.740Z,10.75
2023-05-12T11:31:30.211Z,8.43
2023-05-12T11:36:42.504Z,9.27
2023-05-12T11:41:44.499Z,8.30
2023-05-12T11:47:08.811Z,8.63
2023-05-12T11:52:12.042Z,7.80
2023-05-12T11:57:13.507Z,9.30
2023-05-12T12:02:19.828Z,10.93
2023-05-12T12:07:35.047Z,8.80
2023-05-12T12:12:36.574Z,8.23
2023-05-12T12:17:38.257Z,7.25
2023-05-12T12:22:39.773Z,6.32
2023-05-12T12:27:41.633Z,7.70
2023-05-12T12:32:44.296Z,8.10
2023-05-12T12:37:53.211Z,7.53
2023-05-12T12:42:54.882Z,8.93
2023-05-12T12:47:56.531Z,7.65
2023-05-12T12:52:57.988Z,8.73
2023-05-12T12:58:01.774Z,9.75
2023-05-12T13:03:03.390Z,10.43
2023-05-12T13:08:04.957Z,10.77
2023-05-12T13:13:06.452Z,10.80
2023-05-12T13:18:08.214Z,11.18
2023-05-12T13:23:09.638Z,13.60
2023-05-12T13:28:11.093Z,13.85
2023-05-12T13:33:12.558Z,13.13
2023-05-12T13:38:15.029Z,12.70
2023-05-12T13:43:16.647Z,15.45
2023-05-12T13:48:18.443Z,15.40
2023-05-12T13:53:19.987Z,14.05
2023-05-12T13:58:21.726Z,14.45
2023-05-12T14:03:23.409Z,12.15
2023-05-12T14:08:24.843Z,10.80
2023-05-12T14:13:28.456Z,11.43
2023-05-12T14:18:30.211Z,10.32
2023-05-12T14:23:31.850Z,10.43
2023-05-12T14:28:33.317Z,11.98
2023-05-12T14:33:35.355Z,10.63
2023-05-12T14:38:36.967Z,9.98
2023-05-12T14:43:39.106Z,10.15
2023-05-12T14:48:40.615Z,10.35
2023-05-12T14:53:42.679Z,10.82
2023-05-12T14:58:44.117Z,9.35
2023-05-12T15:03:46.705Z,9.27
2023-05-12T15:08:48.200Z,9.63
2023-05-12T15:13:49.670Z,8.90
2023-05-12T15:18:51.214Z,9.05
2023-05-12T15:23:52.745Z,11.75
2023-05-12T15:28:54.474Z,10.93
2023-05-12T15:33:56.676Z,11.43
2023-05-12T15:38:58.204Z,10.95
2023-05-12T15:43:59.715Z,10.20
2023-05-12T15:49:02.289Z,9.77
2023-05-12T15:54:04.360Z,9.48
2023-05-12T15:59:06.943Z,10.73
2023-05-12T16:04:08.461Z,11.18
2023-05-12T16:09:10.197Z,11.35
2023-05-12T16:14:11.673Z,9.85
2023-05-12T16:19:13.193Z,8.93
2023-05-12T16:24:14.841Z,9.52
2023-05-12T16:29:16.710Z,10.90
2023-05-12T16:34:19.385Z,8.98
2023-05-12T16:39:20.786Z,8.85
2023-05-12T16:44:22.403Z,8.18
2023-05-12T16:49:23.924Z,8.73
2023-05-12T16:54:25.459Z,7.75
2023-05-12T16:59:26.906Z,6.88
2023-05-12T17:04:28.398Z,6.63
2023-05-12T17:09:31.008Z,6.20
2023-05-12T17:14:34.760Z,6.50
2023-05-12T17:19:41.764Z,5.93
2023-05-12T17:24:44.482Z,5.50
2023-05-12T17:29:46.129Z,5.63
2023-05-12T17:34:51.139Z,5.25
2023-05-12T17:39:52.744Z,5.47
2023-05-12T17:44:54.369Z,5.18
2023-05-12T17:49:56.692Z,5.13
2023-05-12T17:54:58.556Z,5.20
2023-05-12T18:00:00.729Z,5.13
2023-05-12T18:05:02.455Z,5.65
2023-05-12T18:10:06.596Z,5.93
2023-05-12T18:15:08.860Z,5.95
2023-05-12T18:20:10.666Z,5.38
2023-05-12T18:25:14.099Z,5.13
2023-05-12T18:30:15.765Z,4.93
2023-05-12T18:35:17.678Z,5.05
2023-05-12T18:40:19.569Z,4.68
2023-05-12T18:45:21.422Z,5.18
2023-05-12T18:50:23.075Z,5.57
2023-05-12T18:55:24.545Z,5.88
2023-05-12T19:00:27.828Z,7.18
2023-05-12T19:05:29.728Z,7.00
2023-05-12T19:10:31.257Z,7.10
2023-05-12T19:15:32.796Z,8.35
2023-05-12T19:20:34.306Z,8.10
2023-05-12T19:25:35.796Z,9.43
2023-05-12T19:30:37.291Z,8.57
2023-05-12T19:35:38.832Z,9.45
2023-05-12T19:40:40.285Z,10.55
2023-05-12T19:45:42.043Z,8.85
2023-05-12T19:50:44.456Z,9.02
2023-05-12T19:55:46.039Z,9.70
2023-05-12T20:00:47.633Z,11.23
2023-05-12T20:05:49.120Z,9.70
2023-05-12T20:10:50.532Z,9.98
2023-05-12T20:15:51.918Z,9.82
2023-05-12T20:20:53.382Z,10.27
2023-05-12T20:25:54.909Z,10.10
2023-05-12T20:30:56.716Z,9.95
2023-05-12T20:35:58.414Z,9.82
2023-05-12T20:41:06.320Z,10.40
2023-05-12T20:46:08.064Z,9.93
2023-05-12T20:51:10.220Z,10.05
2023-05-12T20:56:14.323Z,11.38
2023-05-12T21:01:16.616Z,9.60
2023-05-12T21:06:18.333Z,8.68
2023-05-12T21:11:19.819Z,8.57
2023-05-12T21:16:21.323Z,7.47
2023-05-12T21:21:22.833Z,7.57
2023-05-12T21:26:26.121Z,6.60
2023-05-12T21:31:27.535Z,6.57
2023-05-12T21:36:29.073Z,6.57
2023-05-12T21:41:31.162Z,5.45
2023-05-12T21:46:32.983Z,5.65
2023-05-12T21:51:34.456Z,5.32
2023-05-12T21:56:35.969Z,5.80
2023-05-12T22:01:37.388Z,5.70
2023-05-12T22:06:38.836Z,6.25
2023-05-12T22:11:40.238Z,5.97
2023-05-12T22:16:42.746Z,4.97
2023-05-12T22:21:44.402Z,6.15
2023-05-12T22:26:46.031Z,5.55
2023-05-12T22:31:47.532Z,5.32
2023-05-12T22:36:49.243Z,5.55
2023-05-12T22:41:51.156Z,5.70
2023-05-12T22:46:52.720Z,5.43
2023-05-12T22:51:54.245Z,5.28
2023-05-12T22:56:55.956Z,5.07
2023-05-12T23:01:57.724Z,4.72
2023-05-12T23:06:59.196Z,4.90
2023-05-12T23:12:01.187Z,4.75
2023-05-12T23:17:02.693Z,4.53
2023-05-12T23:22:04.211Z,4.28
2023-05-12T23:27:05.756Z,5.03
2023-05-12T23:32:07.376Z,4.80
2023-05-12T23:37:09.035Z,4.78
2023-05-12T23:42:10.446Z,4.60
2023-05-12T23:47:11.837Z,4.47
2023-05-12T23:52:15.822Z,5.22
2023-05-12T23:57:17.325Z,4.82
